Terminal Aerodrome Forecast
Issued by NWS

Home | Current Version | Previous Version | Text Only | Print | Product List | Glossary On
Versions: 1 2 3 4 5 6 7 8 9 10 11 12 13 14 15 16 17 18 19 20
000
FTAK31 PANC 191739
TAFAIL
TAF
PAIL 191739Z 1918/2018 28008KT 3SM -SHSN BR SCT008 BKN015 OVC025
      TEMPO 1918/1920 1SM -SHSN BR
     FM200000 31006KT P6SM VCSH SCT025 OVC050
     FM201200 34012KT P6SM SCT050=

USA.gov is the U.S. government's official web portal to all federal, state and local government web resources and services.